Time;durP1;ratioP1;P1;durP2;ratioP2;P2;SDS_P1;SDS_P2;PMS_P1;PMS_P2;Temp;Humidity;BMP_temperature;BMP_pressure;BME280_temperature;BME280_humidity;BME280_pressure;Samples;Min_cycle;Max_cycle;Signal;HPM_P1;HPM_P2
2023/04/18 00:01:44;;;;;;;14.60;8.27;;;10.20;74.50;;;;;;5074930;28;20091;-75
2023/04/18 00:04:10;;;;;;;18.77;10.23;;;10.20;74.40;;;;;;5074840;28;20082;-74
2023/04/18 00:06:36;;;;;;;16.20;9.27;;;10.20;73.70;;;;;;5074266;28;20103;-74
2023/04/18 00:09:02;;;;;;;14.40;8.50;;;10.10;73.50;;;;;;5074688;28;20029;-74
2023/04/18 00:11:29;;;;;;;13.57;7.70;;;10.10;73.50;;;;;;5074709;28;20020;-74
2023/04/18 00:13:56;;;;;;;15.07;7.87;;;10.00;73.30;;;;;;5074366;28;20396;-74
2023/04/18 00:16:23;;;;;;;16.17;9.00;;;9.90;73.10;;;;;;5074561;28;20024;-74
2023/04/18 00:18:50;;;;;;;16.00;8.33;;;9.90;72.70;;;;;;5074375;28;20035;-74
2023/04/18 00:21:16;;;;;;;15.47;8.67;;;9.90;72.50;;;;;;5074705;28;20025;-74
2023/04/18 00:23:42;;;;;;;11.93;8.10;;;9.80;72.30;;;;;;5074630;28;20031;-74
2023/04/18 00:26:08;;;;;;;16.77;9.07;;;9.90;72.30;;;;;;5074241;28;20062;-74
2023/04/18 00:28:33;;;;;;;14.17;8.97;;;9.80;72.20;;;;;;5074397;28;20032;-74
2023/04/18 00:30:59;;;;;;;15.23;8.63;;;9.80;72.00;;;;;;5074349;28;20025;-74
2023/04/18 00:33:25;;;;;;;16.43;8.33;;;9.70;72.00;;;;;;5073898;28;20040;-74
2023/04/18 00:35:50;;;;;;;15.97;8.23;;;9.70;72.00;;;;;;5074091;28;20067;-74
2023/04/18 00:38:16;;;;;;;13.73;8.27;;;9.70;71.90;;;;;;5074229;28;20025;-74
2023/04/18 00:40:42;;;;;;;11.70;7.43;;;9.60;71.90;;;;;;5074177;28;20024;-74
2023/04/18 00:43:08;;;;;;;15.97;8.40;;;9.60;71.80;;;;;;5069808;28;20150;-74
2023/04/18 00:45:33;;;;;;;13.87;8.47;;;9.60;71.90;;;;;;5059463;28;20030;-74
2023/04/18 00:47:59;;;;;;;17.07;9.37;;;9.50;71.50;;;;;;5053323;28;20033;-74
2023/04/18 00:50:25;;;;;;;16.83;8.83;;;9.40;71.30;;;;;;5053427;28;20025;-74
2023/04/18 00:52:53;;;;;;;17.90;8.63;;;9.40;71.30;;;;;;5053436;28;20038;-74
2023/04/18 00:55:19;;;;;;;14.33;8.57;;;9.40;71.40;;;;;;5053481;28;20025;-74
2023/04/18 00:57:45;;;;;;;14.17;8.30;;;9.30;71.00;;;;;;5053388;28;20029;-74
2023/04/18 01:00:11;;;;;;;13.53;8.20;;;9.30;71.00;;;;;;5053532;28;20024;-74
2023/04/18 01:02:38;;;;;;;16.83;8.73;;;9.20;70.90;;;;;;5053247;28;20110;-74
2023/04/18 01:05:05;;;;;;;11.83;7.93;;;9.20;71.10;;;;;;5053778;28;20033;-74
2023/04/18 01:07:32;;;;;;;13.57;8.53;;;9.20;71.30;;;;;;5053181;28;20120;-74
2023/04/18 01:09:59;;;;;;;14.03;7.67;;;9.10;71.30;;;;;;5053310;28;20028;-74
2023/04/18 01:12:24;;;;;;;14.97;8.27;;;9.10;71.30;;;;;;5053236;28;20025;-74
2023/04/18 01:14:50;;;;;;;14.17;7.90;;;9.00;71.30;;;;;;5052029;28;20499;-74
2023/04/18 01:17:18;;;;;;;13.47;8.10;;;9.00;71.20;;;;;;5052979;28;20032;-74
2023/04/18 01:19:45;;;;;;;14.10;8.03;;;9.00;71.30;;;;;;5053142;28;20538;-74
2023/04/18 01:22:13;;;;;;;14.87;8.37;;;8.90;71.30;;;;;;5053148;28;20048;-74
2023/04/18 01:24:39;;;;;;;13.30;8.37;;;8.90;71.40;;;;;;5051697;28;20396;-74
2023/04/18 01:27:04;;;;;;;15.53;8.77;;;8.90;71.40;;;;;;5053221;28;20028;-74
2023/04/18 01:29:30;;;;;;;13.53;8.30;;;8.90;71.50;;;;;;5053325;28;20025;-74
2023/04/18 01:31:56;;;;;;;13.27;7.47;;;8.80;71.50;;;;;;5052818;28;20053;-75
2023/04/18 01:34:22;;;;;;;12.77;7.70;;;8.80;71.40;;;;;;5052968;28;20021;-74
2023/04/18 01:36:48;;;;;;;13.27;7.93;;;8.70;71.20;;;;;;5051527;28;20060;-74
2023/04/18 01:39:13;;;;;;;12.70;7.53;;;8.70;71.40;;;;;;5052919;28;20056;-74
2023/04/18 01:41:40;;;;;;;14.67;8.10;;;8.70;71.40;;;;;;5066302;28;20040;-74
2023/04/18 01:44:06;;;;;;;15.93;7.77;;;8.70;71.40;;;;;;5054517;28;20033;-74
2023/04/18 01:46:32;;;;;;;13.97;8.20;;;8.70;71.50;;;;;;5056370;28;20032;-74
2023/04/18 01:48:58;;;;;;;12.60;7.83;;;8.60;71.70;;;;;;5057165;28;20404;-74
2023/04/18 01:51:25;;;;;;;12.80;8.00;;;8.60;71.70;;;;;;5057252;28;20071;-74
2023/04/18 01:53:50;;;;;;;15.97;7.90;;;8.50;71.80;;;;;;5059945;28;20017;-74
2023/04/18 01:56:16;;;;;;;12.63;7.53;;;8.50;71.90;;;;;;5076863;28;20586;-74
2023/04/18 01:58:42;;;;;;;13.13;7.77;;;8.50;71.90;;;;;;5075527;28;20028;-74
2023/04/18 02:01:08;;;;;;;14.43;8.30;;;8.50;71.90;;;;;;5077129;28;20028;-74
2023/04/18 02:03:33;;;;;;;13.63;7.77;;;8.40;72.00;;;;;;5077170;28;20104;-74
2023/04/18 02:06:00;;;;;;;12.77;7.50;;;8.50;72.30;;;;;;5076903;28;20043;-74
2023/04/18 02:08:26;;;;;;;14.00;7.60;;;8.40;72.20;;;;;;5077108;28;20610;-74
2023/04/18 02:10:52;;;;;;;16.47;7.77;;;8.40;72.20;;;;;;5077096;28;20060;-74
2023/04/18 02:13:17;;;;;;;12.60;8.30;;;8.20;72.20;;;;;;5077055;28;20052;-74
2023/04/18 02:15:47;;;;;;;13.63;8.40;;;8.30;72.20;;;;;;5076618;28;20025;-74
2023/04/18 02:18:13;;;;;;;13.07;7.73;;;8.30;72.20;;;;;;5076917;28;20016;-74
2023/04/18 02:20:39;;;;;;;13.90;8.37;;;8.30;72.50;;;;;;5076931;28;20031;-74
2023/04/18 02:23:05;;;;;;;16.93;9.17;;;8.20;72.40;;;;;;5076752;28;20094;-74
2023/04/18 02:25:31;;;;;;;14.77;8.27;;;8.20;72.40;;;;;;5076919;28;20399;-74
2023/04/18 02:27:57;;;;;;;14.70;8.90;;;8.10;72.40;;;;;;5076506;28;20021;-74
2023/04/18 02:30:24;;;;;;;14.20;8.10;;;8.10;72.30;;;;;;5076822;28;20384;-74
2023/04/18 02:32:51;;;;;;;13.33;8.43;;;8.10;72.50;;;;;;5076319;28;20086;-74
2023/04/18 02:35:17;;;;;;;13.87;8.23;;;8.20;72.80;;;;;;5076423;28;20020;-74
2023/04/18 02:37:43;;;;;;;14.33;7.70;;;8.00;72.70;;;;;;5076592;28;20024;-74
2023/04/18 02:40:09;;;;;;;14.30;8.13;;;8.10;72.90;;;;;;5076505;28;20035;-74
2023/04/18 02:42:35;;;;;;;14.63;8.40;;;8.00;73.10;;;;;;5076438;28;20387;-74
2023/04/18 02:45:00;;;;;;;15.23;8.90;;;7.90;73.00;;;;;;5076320;28;20064;-74
2023/04/18 02:47:26;;;;;;;15.80;8.77;;;7.90;73.40;;;;;;5076504;28;20031;-74
2023/04/18 02:49:52;;;;;;;16.60;8.03;;;7.90;73.30;;;;;;5076580;28;20025;-74
2023/04/18 02:52:17;;;;;;;15.17;9.00;;;7.90;73.70;;;;;;5076220;28;20508;-74
2023/04/18 02:54:43;;;;;;;13.97;7.90;;;7.90;73.50;;;;;;5076245;28;20017;-74
2023/04/18 02:57:09;;;;;;;15.77;8.47;;;7.90;73.70;;;;;;5075913;28;20033;-74
2023/04/18 02:59:34;;;;;;;17.13;8.77;;;7.90;73.90;;;;;;5070614;28;20032;-74
2023/04/18 03:02:00;;;;;;;15.37;8.10;;;7.90;74.10;;;;;;5074445;28;20124;-74
2023/04/18 03:04:26;;;;;;;16.93;7.57;;;7.80;74.20;;;;;;5075236;28;20540;-74
2023/04/18 03:06:52;;;;;;;14.70;8.67;;;7.80;74.10;;;;;;5075282;28;20119;-74
2023/04/18 03:09:17;;;;;;;14.07;8.20;;;7.80;74.50;;;;;;5075670;28;20020;-74
2023/04/18 03:11:43;;;;;;;15.27;8.40;;;7.70;74.30;;;;;;5075530;28;20025;-74
2023/04/18 03:14:09;;;;;;;14.73;9.73;;;7.70;74.30;;;;;;5074256;28;20452;-74
2023/04/18 03:16:34;;;;;;;12.33;8.10;;;7.70;74.40;;;;;;5075448;28;20028;-74
2023/04/18 03:19:00;;;;;;;16.73;8.83;;;7.70;74.60;;;;;;5075425;28;20025;-74
2023/04/18 03:21:26;;;;;;;16.40;9.73;;;7.60;74.90;;;;;;5075215;28;20032;-74
2023/04/18 03:23:52;;;;;;;13.33;8.53;;;7.60;74.90;;;;;;5072126;28;20489;-74
2023/04/18 03:26:18;;;;;;;14.37;7.67;;;7.60;74.90;;;;;;5070779;28;20027;-74
2023/04/18 03:28:44;;;;;;;16.53;8.10;;;7.60;75.10;;;;;;5055343;28;20101;-75
2023/04/18 03:31:09;;;;;;;14.97;8.47;;;7.60;75.20;;;;;;5055000;28;20017;-74
2023/04/18 03:33:35;;;;;;;14.20;7.87;;;7.50;75.20;;;;;;5055518;28;20039;-74
2023/04/18 03:36:01;;;;;;;15.87;8.80;;;7.50;75.40;;;;;;5055301;28;20048;-74
2023/04/18 03:38:26;;;;;;;15.73;9.47;;;7.50;75.50;;;;;;5055629;28;20124;-74
2023/04/18 03:40:52;;;;;;;16.90;10.00;;;7.40;75.40;;;;;;5053904;28;20374;-74
2023/04/18 03:43:21;;;;;;;16.80;9.13;;;7.40;76.40;;;;;;5055254;28;20025;-74
2023/04/18 03:45:47;;;;;;;14.97;8.97;;;7.40;75.60;;;;;;5054944;28;20031;-74
2023/04/18 03:48:13;;;;;;;14.13;8.10;;;7.40;75.80;;;;;;5061943;28;20400;-74
2023/04/18 03:50:39;;;;;;;17.27;9.60;;;7.40;76.10;;;;;;5074607;28;20111;-74
2023/04/18 03:53:05;;;;;;;15.63;9.67;;;7.40;76.40;;;;;;5074486;28;20102;-74
2023/04/18 03:55:30;;;;;;;14.73;10.17;;;7.40;76.90;;;;;;5074554;28;20078;-75
2023/04/18 03:57:58;;;;;;;15.10;9.47;;;7.40;76.60;;;;;;5074583;28;20024;-74
2023/04/18 04:00:24;;;;;;;17.47;10.10;;;7.50;76.60;;;;;;5074500;28;20116;-74
2023/04/18 04:02:50;;;;;;;16.17;9.67;;;7.60;76.60;;;;;;5074533;28;20024;-74
2023/04/18 04:05:15;;;;;;;15.67;8.47;;;7.50;76.50;;;;;;5071176;28;20449;-74
2023/04/18 04:07:41;;;;;;;16.67;9.17;;;7.50;76.50;;;;;;5067480;28;20475;-74
2023/04/18 04:10:07;;;;;;;17.10;10.10;;;7.60;76.90;;;;;;5072776;28;20107;-74
2023/04/18 04:12:33;;;;;;;16.70;9.90;;;7.60;77.00;;;;;;5072671;28;20108;-75
2023/04/18 04:14:59;;;;;;;16.50;9.03;;;7.70;76.80;;;;;;5072194;28;20445;-74
2023/04/18 04:17:25;;;;;;;17.80;9.33;;;7.60;76.90;;;;;;5074143;28;20020;-74
2023/04/18 04:19:51;;;;;;;14.60;9.13;;;7.60;77.00;;;;;;5073420;28;20031;-74
2023/04/18 04:22:16;;;;;;;14.03;8.87;;;7.60;77.10;;;;;;5073811;28;20021;-74
2023/04/18 04:24:42;;;;;;;18.43;9.60;;;7.70;77.10;;;;;;5074066;28;20396;-75
2023/04/18 04:27:09;;;;;;;15.53;9.77;;;7.80;77.20;;;;;;5072546;28;20043;-75
2023/04/18 04:29:34;;;;;;;16.77;9.90;;;7.80;77.10;;;;;;5074018;28;20043;-74
2023/04/18 04:32:00;;;;;;;15.90;8.93;;;7.80;77.40;;;;;;5070227;28;20481;-74
2023/04/18 04:34:26;;;;;;;18.30;9.70;;;7.80;77.50;;;;;;5073542;28;20033;-74
2023/04/18 04:36:52;;;;;;;14.87;10.13;;;7.80;77.40;;;;;;5070451;28;20390;-74
2023/04/18 04:39:18;;;;;;;15.43;9.53;;;7.80;77.50;;;;;;5063377;28;20040;-74
2023/04/18 04:41:45;;;;;;;17.77;9.60;;;7.80;77.60;;;;;;5073108;28;20028;-74
2023/04/18 04:44:12;;;;;;;14.20;9.17;;;7.90;77.80;;;;;;5070564;28;20384;-74
2023/04/18 04:46:39;;;;;;;16.17;10.33;;;8.00;77.80;;;;;;5071404;28;20032;-74
2023/04/18 04:49:05;;;;;;;18.13;10.23;;;7.90;77.80;;;;;;5072731;28;20603;-75
2023/04/18 04:51:31;;;;;;;15.07;9.03;;;7.80;78.10;;;;;;5073304;28;20044;-74
2023/04/18 04:53:56;;;;;;;14.77;9.03;;;8.00;78.00;;;;;;5071950;28;20426;-74
2023/04/18 04:56:22;;;;;;;15.77;9.53;;;7.90;78.20;;;;;;5073018;28;20029;-74
2023/04/18 04:58:48;;;;;;;15.73;9.47;;;8.00;78.30;;;;;;5072867;28;20028;-74
2023/04/18 05:01:15;;;;;;;15.80;9.60;;;8.10;78.40;;;;;;5072723;28;20429;-74
2023/04/18 05:03:41;;;;;;;17.07;9.37;;;8.00;78.50;;;;;;5065956;28;20056;-74
2023/04/18 05:06:07;;;;;;;14.07;8.53;;;8.00;78.30;;;;;;5073022;28;20043;-74
2023/04/18 05:08:33;;;;;;;15.07;9.30;;;8.10;78.40;;;;;;5073190;28;20032;-74
2023/04/18 05:11:00;;;;;;;16.77;9.97;;;8.10;78.30;;;;;;5072998;28;20134;-74
2023/04/18 05:13:26;;;;;;;16.17;9.73;;;8.10;78.50;;;;;;5073683;28;20020;-74
2023/04/18 05:15:51;;;;;;;16.07;9.80;;;8.10;78.60;;;;;;5073616;28;20368;-74
2023/04/18 05:18:17;;;;;;;18.03;9.93;;;8.10;78.80;;;;;;5073408;28;20131;-73
2023/04/18 05:20:43;;;;;;;15.77;9.57;;;8.00;78.90;;;;;;5072585;28;20526;-74
2023/04/18 05:23:08;;;;;;;15.07;8.83;;;8.00;79.10;;;;;;5072680;28;20036;-74
2023/04/18 05:25:35;;;;;;;15.33;9.93;;;7.90;79.40;;;;;;5072991;28;20496;-74
2023/04/18 05:28:03;;;;;;;16.30;9.93;;;8.00;79.60;;;;;;5072729;28;20055;-75
2023/04/18 05:30:29;;;;;;;15.00;9.27;;;8.00;79.70;;;;;;5073202;28;20017;-74
2023/04/18 05:32:55;;;;;;;15.43;9.13;;;8.00;79.90;;;;;;5072940;28;20086;-75
2023/04/18 05:35:20;;;;;;;17.63;10.67;;;8.10;80.20;;;;;;5073059;28;20028;-74
2023/04/18 05:37:46;;;;;;;18.03;10.43;;;8.10;80.30;;;;;;5072561;28;20369;-75
2023/04/18 05:40:12;;;;;;;15.80;9.93;;;8.20;80.20;;;;;;5073125;28;20108;-75
2023/04/18 05:42:38;;;;;;;16.30;9.70;;;8.20;80.10;;;;;;5073065;28;20066;-74
2023/04/18 05:45:04;;;;;;;16.40;10.30;;;8.30;80.30;;;;;;5072965;28;20131;-75
2023/04/18 05:47:30;;;;;;;17.97;10.77;;;8.30;80.10;;;;;;5073296;28;20074;-75
2023/04/18 05:49:56;;;;;;;17.43;10.23;;;8.40;80.20;;;;;;5073481;28;20092;-75
2023/04/18 05:52:21;;;;;;;17.03;9.40;;;8.40;80.20;;;;;;5071983;28;20028;-75
2023/04/18 05:54:47;;;;;;;16.77;10.93;;;8.40;80.20;;;;;;5073222;28;20024;-75
2023/04/18 05:57:12;;;;;;;15.27;9.07;;;8.40;80.30;;;;;;5072829;28;20017;-75
2023/04/18 05:59:38;;;;;;;17.23;10.27;;;8.50;80.40;;;;;;5071619;28;20028;-75
2023/04/18 06:02:04;;;;;;;16.33;10.33;;;8.50;80.50;;;;;;5073341;28;20330;-75
2023/04/18 06:04:29;;;;;;;16.00;10.30;;;8.60;80.50;;;;;;5069437;28;20025;-75
2023/04/18 06:06:55;;;;;;;16.47;9.47;;;8.60;80.50;;;;;;5072253;28;20110;-75
2023/04/18 06:09:21;;;;;;;16.63;9.23;;;8.70;80.50;;;;;;5072234;28;20028;-75
2023/04/18 06:11:46;;;;;;;18.07;9.70;;;8.70;80.30;;;;;;5072418;28;20035;-75
2023/04/18 06:14:12;;;;;;;16.43;9.50;;;8.90;80.50;;;;;;5072283;28;20025;-75
2023/04/18 06:16:37;;;;;;;13.80;8.73;;;8.90;80.40;;;;;;5072383;28;20029;-76
2023/04/18 06:19:04;;;;;;;18.73;10.03;;;9.10;80.40;;;;;;5072330;28;20037;-76
2023/04/18 06:21:29;;;;;;;15.30;9.07;;;9.00;79.90;;;;;;5072041;28;20024;-78
2023/04/18 06:23:55;;;;;;;15.87;9.63;;;9.10;79.90;;;;;;5071635;28;20028;-77
2023/04/18 06:26:21;;;;;;;14.67;9.17;;;9.10;79.80;;;;;;5062972;28;20108;-77
2023/04/18 06:28:46;;;;;;;13.83;9.17;;;9.10;79.80;;;;;;5067719;28;20025;-77
2023/04/18 06:31:12;;;;;;;13.90;8.87;;;9.20;79.90;;;;;;5053595;28;20027;-77
2023/04/18 06:33:38;;;;;;;19.17;9.97;;;9.30;80.00;;;;;;5056242;28;20021;-77
2023/04/18 06:36:04;;;;;;;16.13;8.57;;;9.30;80.00;;;;;;5054933;28;20516;-77
2023/04/18 06:38:31;;;;;;;17.57;9.23;;;9.30;79.80;;;;;;5054925;28;20033;-77
2023/04/18 06:40:56;;;;;;;14.87;8.73;;;9.50;79.70;;;;;;5056291;28;20108;-77
2023/04/18 06:43:22;;;;;;;12.17;7.53;;;9.40;79.60;;;;;;5055356;28;20116;-78
2023/04/18 06:45:47;;;;;;;13.57;7.73;;;9.50;79.70;;;;;;5055926;28;20044;-77
2023/04/18 06:48:13;;;;;;;14.23;7.47;;;9.60;79.70;;;;;;5056260;28;20017;-77
2023/04/18 06:50:39;;;;;;;15.33;7.83;;;9.60;79.70;;;;;;5056138;28;20426;-77
2023/04/18 06:53:04;;;;;;;14.90;8.07;;;9.60;79.40;;;;;;5056261;28;20021;-77
2023/04/18 06:55:30;;;;;;;11.83;7.20;;;9.70;79.20;;;;;;5056003;28;20025;-77
2023/04/18 06:57:56;;;;;;;12.53;6.73;;;9.80;79.40;;;;;;5055773;28;20035;-77
2023/04/18 07:00:22;;;;;;;11.07;7.10;;;9.80;79.10;;;;;;5054464;28;20181;-77
2023/04/18 07:02:47;;;;;;;12.30;7.33;;;9.80;78.90;;;;;;5055679;28;20544;-77
2023/04/18 07:05:13;;;;;;;11.87;6.90;;;9.90;78.90;;;;;;5054493;28;20036;-76
2023/04/18 07:07:39;;;;;;;11.93;6.57;;;9.90;78.80;;;;;;5055856;28;20041;-77
2023/04/18 07:10:06;;;;;;;10.17;6.50;;;9.90;78.80;;;;;;5056115;28;20389;-77
2023/04/18 07:12:32;;;;;;;11.87;6.57;;;10.00;78.70;;;;;;5055850;28;20021;-77
2023/04/18 07:14:58;;;;;;;12.67;7.17;;;10.20;78.60;;;;;;5055874;28;20096;-77
2023/04/18 07:17:23;;;;;;;10.63;6.23;;;10.20;78.30;;;;;;5055525;28;20108;-76
2023/04/18 07:19:49;;;;;;;11.47;6.47;;;10.20;78.30;;;;;;5055910;28;20067;-77
2023/04/18 07:22:15;;;;;;;10.30;5.83;;;10.20;77.90;;;;;;5055717;28;20036;-76
2023/04/18 07:24:41;;;;;;;10.77;6.57;;;10.30;78.50;;;;;;5054204;28;20389;-76
2023/04/18 07:27:08;;;;;;;9.30;5.53;;;10.30;77.70;;;;;;5055401;28;20075;-76
2023/04/18 07:29:34;;;;;;;9.87;5.30;;;10.20;77.60;;;;;;5055608;28;20083;-76
2023/04/18 07:32:00;;;;;;;11.83;6.33;;;10.30;77.80;;;;;;5055495;28;20108;-77
2023/04/18 07:34:28;;;;;;;10.60;5.97;;;10.30;77.60;;;;;;5055226;28;20147;-76
2023/04/18 07:36:55;;;;;;;10.83;5.60;;;10.40;77.70;;;;;;5055020;28;20428;-76
2023/04/18 07:39:21;;;;;;;10.60;5.60;;;10.30;77.40;;;;;;5054972;28;20032;-76
2023/04/18 07:41:47;;;;;;;10.50;5.73;;;10.30;77.40;;;;;;5054839;28;20025;-76
2023/04/18 07:44:12;;;;;;;9.17;5.43;;;10.40;78.10;;;;;;5054472;28;20035;-77
2023/04/18 07:46:38;;;;;;;10.87;5.80;;;10.40;77.50;;;;;;5054966;28;20033;-76
2023/04/18 07:49:03;;;;;;;9.33;5.57;;;10.50;77.50;;;;;;5054955;28;20484;-76
2023/04/18 07:51:33;;;;;;;9.93;6.50;;;10.50;77.40;;;;;;5053694;28;20028;-76
2023/04/18 07:53:59;;;;;;;8.50;5.27;;;10.60;77.40;;;;;;5054973;28;20022;-77
2023/04/18 07:56:26;;;;;;;10.03;5.57;;;10.60;77.40;;;;;;5054996;28;20503;-77
2023/04/18 07:58:52;;;;;;;10.77;5.87;;;10.60;77.40;;;;;;5054862;28;20029;-77
2023/04/18 08:01:19;;;;;;;8.33;5.07;;;10.70;77.40;;;;;;5055435;28;20025;-76
2023/04/18 08:03:47;;;;;;;9.17;5.40;;;10.70;77.20;;;;;;5054874;28;20056;-76
2023/04/18 08:06:13;;;;;;;7.63;4.63;;;10.80;77.10;;;;;;5053607;28;20041;-77
2023/04/18 08:08:39;;;;;;;8.60;5.43;;;10.80;77.00;;;;;;5055110;28;20096;-76
2023/04/18 08:11:04;;;;;;;8.80;5.10;;;10.80;77.00;;;;;;5054853;28;20098;-76
2023/04/18 08:13:30;;;;;;;9.33;5.33;;;10.90;76.90;;;;;;5054741;28;20028;-76
2023/04/18 08:15:58;;;;;;;11.97;6.00;;;10.90;76.80;;;;;;5054422;28;20044;-75
2023/04/18 08:18:24;;;;;;;8.57;4.73;;;11.00;76.80;;;;;;5053499;28;20057;-76
2023/04/18 08:20:50;;;;;;;8.63;5.50;;;11.10;76.90;;;;;;5054875;28;20025;-75
2023/04/18 08:23:15;;;;;;;13.13;6.28;;;11.10;76.60;;;;;;5054581;28;20040;-76
2023/04/18 08:25:41;;;;;;;8.68;5.38;;;11.20;76.20;;;;;;5054702;28;20063;-76
2023/04/18 08:28:07;;;;;;;8.60;5.53;;;11.20;76.10;;;;;;5052945;28;20032;-76
2023/04/18 08:30:33;;;;;;;8.30;5.37;;;11.20;76.10;;;;;;5054514;28;20339;-77
2023/04/18 08:32:59;;;;;;;8.73;5.20;;;11.30;75.70;;;;;;5054524;28;20020;-77
2023/04/18 08:35:25;;;;;;;10.07;5.20;;;11.40;75.90;;;;;;5054228;28;20025;-76
2023/04/18 08:37:51;;;;;;;8.63;5.05;;;11.40;75.90;;;;;;5054109;28;20032;-77
2023/04/18 08:40:17;;;;;;;10.23;5.63;;;11.50;76.00;;;;;;5054259;28;20405;-77
2023/04/18 08:42:43;;;;;;;7.88;4.70;;;11.50;75.90;;;;;;5054303;28;20020;-76
2023/04/18 08:45:12;;;;;;;8.10;4.72;;;11.60;75.70;;;;;;5053717;28;20025;-77
2023/04/18 08:47:39;;;;;;;8.20;4.13;;;11.70;76.00;;;;;;5053855;28;20017;-76
2023/04/18 08:50:06;;;;;;;9.35;5.07;;;11.80;76.00;;;;;;5053015;28;20108;-77
2023/04/18 08:52:34;;;;;;;6.38;3.72;;;12.00;75.90;;;;;;5054002;28;20033;-77
2023/04/18 08:55:01;;;;;;;6.78;3.95;;;12.10;75.70;;;;;;5053703;28;20032;-77
2023/04/18 08:57:27;;;;;;;7.53;4.03;;;12.20;75.40;;;;;;5052364;28;20025;-77
2023/04/18 08:59:54;;;;;;;7.40;4.45;;;12.40;74.90;;;;;;5053921;28;20021;-77
2023/04/18 09:02:22;;;;;;;8.60;4.25;;;12.50;74.60;;;;;;5052427;28;20020;-77
2023/04/18 09:04:51;;;;;;;6.65;4.35;;;12.60;74.30;;;;;;5053990;28;20044;-76
2023/04/18 09:07:27;;;;;;;7.97;4.25;;;12.70;74.30;;;;;;5053058;28;20048;-76
2023/04/18 09:09:58;;;;;;;8.55;3.92;;;12.80;73.90;;;;;;5052311;28;20029;-77
2023/04/18 09:12:26;;;;;;;6.95;4.13;;;12.90;73.80;;;;;;5052374;28;20064;-77
2023/04/18 09:14:55;;;;;;;5.88;3.42;;;13.00;73.50;;;;;;5053798;28;20453;-77
2023/04/18 09:17:40;;;;;;;7.68;3.92;;;13.00;73.20;;;;;;5053359;28;20087;-77
2023/04/18 09:20:10;;;;;;;7.80;4.35;;;13.10;72.50;;;;;;5053861;28;20461;-77
2023/04/18 09:22:50;;;;;;;6.57;3.67;;;13.20;72.60;;;;;;5052236;28;20036;-77
2023/04/18 09:25:34;;;;;;;5.95;3.60;;;13.20;72.40;;;;;;5053327;28;20071;-77
2023/04/18 09:28:01;;;;;;;7.75;4.13;;;13.30;72.20;;;;;;5053432;28;20017;-77
2023/04/18 09:30:31;;;;;;;8.48;4.43;;;13.30;72.00;;;;;;5053175;28;20029;-76
2023/04/18 09:32:59;;;;;;;6.22;3.50;;;13.30;71.80;;;;;;5053345;28;20025;-76
2023/04/18 09:35:25;;;;;;;7.35;3.97;;;13.40;71.40;;;;;;5051981;28;20025;-77
2023/04/18 09:37:51;;;;;;;8.55;3.65;;;13.40;71.40;;;;;;5053025;28;20113;-77
2023/04/18 09:40:18;;;;;;;6.15;3.55;;;13.50;71.50;;;;;;5053056;28;20107;-77
2023/04/18 09:42:49;;;;;;;6.25;3.83;;;13.50;71.00;;;;;;5053400;28;20037;-76
2023/04/18 09:45:15;;;;;;;6.07;3.72;;;13.60;70.90;;;;;;5053252;28;20037;-77
2023/04/18 09:47:41;;;;;;;6.55;3.95;;;13.60;70.90;;;;;;5035512;28;20040;-76
2023/04/18 09:50:08;;;;;;;7.15;3.60;;;13.70;70.40;;;;;;5053251;28;20129;-76
2023/04/18 09:52:36;;;;;;;6.32;3.58;;;13.80;70.80;;;;;;5053312;28;20032;-77
2023/04/18 09:55:04;;;;;;;5.80;3.35;;;14.00;70.90;;;;;;5052961;28;20089;-76
2023/04/18 09:57:31;;;;;;;5.53;2.90;;;14.30;70.80;;;;;;5054417;28;20385;-76
2023/04/18 10:00:20;;;;;;;5.40;2.97;;;14.50;70.20;;;;;;5061539;28;20029;-76
2023/04/18 10:02:55;;;;;;;6.90;2.97;;;14.60;69.70;;;;;;5058324;28;20484;-77
2023/04/18 10:05:29;;;;;;;5.75;3.50;;;14.80;68.80;;;;;;5053144;28;20469;-76
2023/04/18 10:07:56;;;;;;;6.13;2.45;;;14.90;68.20;;;;;;5056350;28;20092;-77
2023/04/18 10:10:22;;;;;;;5.90;3.13;;;15.00;68.30;;;;;;5056429;28;20040;-76
2023/04/18 10:12:49;;;;;;;5.38;3.15;;;15.20;67.80;;;;;;5055242;28;20025;-76
2023/04/18 10:15:16;;;;;;;4.45;2.55;;;15.40;66.80;;;;;;5056647;28;20025;-77
2023/04/18 10:17:54;;;;;;;5.28;2.78;;;15.50;66.80;;;;;;5056560;28;20036;-77
2023/04/18 10:20:23;;;;;;;6.07;2.97;;;15.80;66.70;;;;;;5055183;28;20470;-77
2023/04/18 10:22:50;;;;;;;4.90;2.90;;;16.00;66.10;;;;;;5071822;28;20098;-77
2023/04/18 10:25:37;;;;;;;5.30;3.10;;;16.30;65.20;;;;;;5056258;28;20029;-76
2023/04/18 10:28:04;;;;;;;5.07;2.55;;;16.40;64.30;;;;;;5056433;28;20025;-78
2023/04/18 10:30:39;;;;;;;4.53;2.40;;;16.50;64.10;;;;;;5056364;28;20372;-77
2023/04/18 10:33:26;;;;;;;5.05;3.20;;;16.70;64.10;;;;;;5054827;28;20070;-79
2023/04/18 10:35:59;;;;;;;5.28;2.33;;;16.90;63.40;;;;;;5056214;28;20032;-77
2023/04/18 10:38:26;;;;;;;5.18;2.40;;;17.30;63.50;;;;;;5056111;28;20033;-78
2023/04/18 10:40:52;;;;;;;4.75;2.80;;;17.90;63.80;;;;;;5054854;28;20029;-77
2023/04/18 10:43:17;;;;;;;6.10;3.25;;;18.10;62.40;;;;;;5056120;28;20090;-77
2023/04/18 10:45:43;;;;;;;5.07;3.10;;;18.20;59.70;;;;;;5054765;28;20037;-78
2023/04/18 10:48:28;;;;;;;5.53;3.05;;;18.00;58.70;;;;;;5054808;28;20064;-77
2023/04/18 10:51:12;;;;;;;6.07;3.25;;;17.80;58.80;;;;;;5054754;28;20151;-77
2023/04/18 10:53:39;;;;;;;;;;;17.50;58.60;;;;;;5055061;28;20033;-76
2023/04/18 10:56:06;;;;;;;5.75;3.15;;;17.20;58.30;;;;;;5055692;28;19905;-77
2023/04/18 10:58:33;;;;;;;7.10;4.05;;;16.90;59.10;;;;;;5055616;28;20500;-77
2023/04/18 11:01:00;;;;;;;10.57;4.80;;;16.70;59.40;;;;;;5055812;28;20055;-77
2023/04/18 11:03:32;;;;;;;7.43;4.07;;;16.40;59.70;;;;;;5054561;28;20037;-77
2023/04/18 11:06:01;;;;;;;8.95;4.55;;;16.30;60.00;;;;;;5055575;28;20125;-77
2023/04/18 11:08:27;;;;;;;5.07;3.20;;;16.20;60.40;;;;;;5055526;28;20163;-76
2023/04/18 11:11:01;;;;;;;6.30;3.67;;;16.10;60.70;;;;;;5055709;28;20107;-77
2023/04/18 11:13:27;;;;;;;8.48;4.03;;;16.10;60.80;;;;;;5055514;28;20009;-77
2023/04/18 11:15:53;;;;;;;7.53;3.72;;;16.00;61.00;;;;;;5054190;28;20485;-77
2023/04/18 11:18:18;;;;;;;7.68;4.30;;;16.00;61.10;;;;;;5053020;28;20057;-76
2023/04/18 11:20:49;;;;;;;7.65;4.32;;;16.10;61.30;;;;;;5055324;28;20033;-77
2023/04/18 11:23:20;;;;;;;9.32;5.03;;;16.10;61.20;;;;;;5055350;28;20389;-76
2023/04/18 11:25:50;;;;;;;8.93;5.20;;;16.10;61.20;;;;;;5055124;28;20473;-76
2023/04/18 11:28:20;;;;;;;8.25;4.80;;;15.90;61.30;;;;;;5055190;28;20103;-76
2023/04/18 11:30:47;;;;;;;9.48;5.55;;;15.80;61.70;;;;;;5055225;28;20025;-77
2023/04/18 11:33:13;;;;;;;8.50;4.90;;;15.70;62.00;;;;;;5054847;28;20086;-77
2023/04/18 11:35:41;;;;;;;7.88;5.00;;;15.60;62.20;;;;;;5055238;28;20025;-77
2023/04/18 11:38:09;;;;;;;8.10;4.63;;;15.50;62.50;;;;;;5054997;28;20153;-77
2023/04/18 11:40:37;;;;;;;7.88;4.68;;;15.50;62.70;;;;;;5055151;28;20032;-77
2023/04/18 11:43:05;;;;;;;8.40;5.15;;;15.50;63.10;;;;;;5037089;28;20033;-77
2023/04/18 11:45:31;;;;;;;7.53;5.07;;;15.60;63.10;;;;;;5054814;28;20029;-77
2023/04/18 11:47:58;;;;;;;9.38;5.47;;;15.60;63.10;;;;;;5054895;28;20027;-77
2023/04/18 11:50:24;;;;;;;8.82;5.53;;;15.50;63.20;;;;;;5054857;28;20048;-77
2023/04/18 11:52:52;;;;;;;8.20;5.05;;;15.50;63.40;;;;;;5053653;28;20033;-76
2023/04/18 11:55:23;;;;;;;8.60;5.03;;;15.40;63.50;;;;;;5054676;28;20021;-77
2023/04/18 11:57:49;;;;;;;7.78;4.97;;;15.50;63.70;;;;;;5054902;28;20025;-77
2023/04/18 12:00:17;;;;;;;8.18;5.07;;;15.40;63.70;;;;;;5054599;28;20064;-77
2023/04/18 12:02:45;;;;;;;9.35;5.38;;;15.50;63.80;;;;;;5054731;28;20071;-76
2023/04/18 12:05:22;;;;;;;11.05;5.95;;;15.50;63.80;;;;;;5054489;28;20029;-77
2023/04/18 12:07:48;;;;;;;12.77;5.70;;;15.50;63.90;;;;;;5063879;28;20260;-76
2023/04/18 12:10:25;;;;;;;12.27;6.88;;;15.50;64.00;;;;;;5072855;28;20025;-77
2023/04/18 12:12:52;;;;;;;10.80;5.88;;;15.30;64.00;;;;;;5072997;28;20026;-77
2023/04/18 12:15:20;;;;;;;8.85;5.47;;;15.30;64.20;;;;;;5073231;28;20095;-77
2023/04/18 12:17:53;;;;;;;10.18;5.97;;;15.40;64.40;;;;;;5074348;28;20028;-76
2023/04/18 12:20:18;;;;;;;9.80;6.15;;;15.50;64.40;;;;;;5073932;28;20484;-77
2023/04/18 12:22:51;;;;;;;7.70;5.13;;;15.60;64.40;;;;;;5073499;28;20031;-76
2023/04/18 12:25:23;;;;;;;9.23;5.78;;;15.80;64.30;;;;;;5074067;28;20016;-77
2023/04/18 12:27:56;;;;;;;11.23;6.32;;;15.80;64.20;;;;;;5074171;28;20017;-76
2023/04/18 12:30:27;;;;;;;8.85;6.00;;;15.90;64.20;;;;;;5073711;28;20020;-77
2023/04/18 12:32:54;;;;;;;9.15;5.63;;;16.00;64.30;;;;;;5074056;28;20028;-77
2023/04/18 12:35:21;;;;;;;9.27;5.97;;;16.20;64.50;;;;;;5073864;28;20100;-77
2023/04/18 12:37:48;;;;;;;8.75;5.65;;;16.50;64.50;;;;;;5072508;28;20025;-77
2023/04/18 12:40:15;;;;;;;9.57;6.35;;;17.00;64.80;;;;;;5073837;28;20024;-76
2023/04/18 12:42:41;;;;;;;8.27;5.97;;;17.50;64.20;;;;;;5073728;28;20499;-76
2023/04/18 12:45:09;;;;;;;8.55;5.30;;;17.90;63.90;;;;;;5072212;28;20115;-77